Time;durP1;ratioP1;P1;durP2;ratioP2;P2;SDS_P1;SDS_P2;PMS_P1;PMS_P2;Temp;Humidity;BMP_temperature;BMP_pressure;BME280_temperature;BME280_humidity;BME280_pressure;Samples;Min_cycle;Max_cycle;Signal;HPM_P1;HPM_P2
2024/01/22 00:01:56;;;;;;;;;;;2.80;99.90;;;;;;4885856;29;19904;-90
2024/01/22 00:04:22;;;;;;;;;;;2.70;99.90;;;;;;4885221;29;19923;-89
2024/01/22 00:06:48;;;;;;;;;;;2.70;99.90;;;;;;4901637;29;20323;-89
2024/01/22 00:09:13;;;;;;;;;;;2.70;99.90;;;;;;4884703;29;19916;-90
2024/01/22 00:11:39;;;;;;;;;;;2.60;99.90;;;;;;4884560;29;19915;-90
2024/01/22 00:14:04;;;;;;;;;;;2.70;99.90;;;;;;4885455;29;20384;-90
2024/01/22 00:16:31;;;;;;;;;;;2.60;99.90;;;;;;4901684;29;19922;-90
2024/01/22 00:18:56;;;;;;;;;;;2.60;99.90;;;;;;4885411;29;19942;-90
2024/01/22 00:21:22;;;;;;;;;;;2.60;99.90;;;;;;4885249;29;19919;-90
2024/01/22 00:23:48;;;;;;;;;;;2.70;99.90;;;;;;4885455;29;19919;-90
2024/01/22 00:26:14;;;;;;;;;;;2.60;99.90;;;;;;4901449;29;20414;-90
2024/01/22 00:28:41;;;;;;;;;;;2.60;99.90;;;;;;4885735;29;19922;-90
2024/01/22 00:31:07;;;;;;;;;;;2.50;99.90;;;;;;4885291;29;19922;-90
2024/01/22 00:33:32;;;;;;;;;;;2.50;99.90;;;;;;4884646;29;19920;-90
2024/01/22 00:35:58;;;;;;;;;;;2.50;99.90;;;;;;4884966;29;19915;-90
2024/01/22 00:38:23;;;;;;;;;;;2.50;99.90;;;;;;4884679;29;20013;-90
2024/01/22 00:40:49;;;;;;;;;;;2.50;99.90;;;;;;4884604;29;20009;-90
2024/01/22 00:43:14;;;;;;;;;;;2.50;99.90;;;;;;4884842;29;20395;-90
2024/01/22 00:45:40;;;;;;;;;;;2.50;99.90;;;;;;4901659;29;19907;-89
2024/01/22 00:48:06;;;;;;;;;;;2.50;99.90;;;;;;4884679;29;19927;-87
2024/01/22 00:50:32;;;;;;;;;;;2.50;99.90;;;;;;4884287;29;20010;-89
2024/01/22 00:52:57;;;;;;;;;;;2.50;99.90;;;;;;4868510;29;19911;-91
2024/01/22 00:55:23;;;;;;;;;;;2.40;99.90;;;;;;4883724;29;19919;-90
2024/01/22 00:57:48;;;;;;;;;;;2.40;99.90;;;;;;4885497;29;19955;-90
2024/01/22 01:00:15;;;;;;;;;;;2.30;99.90;;;;;;4884592;29;20165;-90
2024/01/22 01:02:40;;;;;;;;;;;2.10;99.90;;;;;;4885143;29;19919;-89
2024/01/22 01:05:06;;;;;;;;;;;1.90;99.90;;;;;;4900178;29;20372;-90
2024/01/22 01:07:32;;;;;;;;;;;1.80;99.90;;;;;;4884363;29;19924;-90
2024/01/22 01:09:57;;;;;;;;;;;1.70;99.90;;;;;;4883959;29;19953;-90
2024/01/22 01:12:23;;;;;;;;;;;1.50;99.90;;;;;;4884131;29;19922;-89
2024/01/22 01:14:48;;;;;;;;;;;1.50;99.90;;;;;;4900031;29;20419;-91
2024/01/22 01:17:14;;;;;;;;;;;1.40;99.90;;;;;;4888171;29;19911;-90
2024/01/22 01:19:40;;;;;;;;;;;1.40;99.90;;;;;;4888081;29;19923;-89
2024/01/22 01:22:06;;;;;;;;;;;1.30;99.90;;;;;;4887919;29;19923;-90
2024/01/22 01:24:31;;;;;;;;;;;1.40;99.90;;;;;;4886661;29;19919;-90
2024/01/22 01:26:57;;;;;;;;;;;1.50;99.90;;;;;;4886710;29;20267;-89
2024/01/22 01:29:22;;;;;;;;;;;1.60;99.90;;;;;;4901832;29;19915;-89
2024/01/22 01:31:48;;;;;;;;;;;1.70;99.90;;;;;;4886122;29;19999;-89
2024/01/22 01:34:13;;;;;;;;;;;1.80;99.90;;;;;;4882268;29;20393;-89
2024/01/22 01:36:39;;;;;;;;;;;1.80;99.90;;;;;;4901892;29;20288;-89
2024/01/22 01:39:05;;;;;;;;;;;1.80;99.90;;;;;;4885979;29;20452;-89
2024/01/22 01:41:30;;;;;;;;;;;1.70;99.90;;;;;;4886347;29;19976;-89
2024/01/22 01:43:56;;;;;;;;;;;1.60;99.90;;;;;;4902010;29;19930;-90
2024/01/22 01:46:22;;;;;;;;;;;1.50;99.90;;;;;;4886206;29;19966;-90
2024/01/22 01:48:47;;;;;;;;;;;1.50;99.90;;;;;;4886150;29;19915;-90
2024/01/22 01:51:14;;;;;;;;;;;1.40;99.90;;;;;;4886749;29;19966;-89
2024/01/22 01:53:39;;;;;;;;;;;1.40;99.90;;;;;;4885779;29;20024;-89
2024/01/22 01:56:05;;;;;;;;;;;1.40;99.90;;;;;;4885819;29;20055;-89
2024/01/22 01:58:31;;;;;;;;;;;1.40;99.90;;;;;;4886723;29;20005;-89
2024/01/22 02:00:57;;;;;;;;;;;1.30;99.90;;;;;;4886813;29;19990;-89
2024/01/22 02:03:23;;;;;;;;;;;1.40;99.90;;;;;;4885777;29;20339;-89
2024/01/22 02:05:49;;;;;;;;;;;1.30;99.90;;;;;;4885599;29;20014;-89
2024/01/22 02:08:14;;;;;;;;;;;1.30;99.90;;;;;;4886104;29;19920;-89
2024/01/22 02:10:40;;;;;;;;;;;1.40;99.90;;;;;;4885871;29;19950;-89
2024/01/22 02:13:09;;;;;;;;;;;1.30;99.90;;;;;;4885900;29;20245;-89
2024/01/22 02:15:34;;;;;;;;;;;1.30;99.90;;;;;;4886020;29;19916;-89
2024/01/22 02:18:00;;;;;;;;;;;1.40;99.90;;;;;;4900768;29;19920;-89
2024/01/22 02:20:26;;;;;;;;;;;1.40;99.90;;;;;;4884567;29;20410;-90
2024/01/22 02:22:51;;;;;;;;;;;1.50;99.90;;;;;;4885559;29;19923;-89
2024/01/22 02:25:17;;;;;;;;;;;1.50;99.90;;;;;;4885534;29;20646;-90
2024/01/22 02:27:43;;;;;;;;;;;1.50;99.90;;;;;;4884749;29;19923;-90
2024/01/22 02:30:08;;;;;;;;;;;1.60;99.90;;;;;;4885256;29;19954;-89
2024/01/22 02:32:34;;;;;;;;;;;1.70;99.90;;;;;;4885410;29;19926;-89
2024/01/22 02:35:00;;;;;;;;;;;1.90;99.90;;;;;;4882569;29;19919;-89
2024/01/22 02:37:25;;;;;;;;;;;2.10;99.90;;;;;;4885318;29;19916;-89
2024/01/22 02:39:51;;;;;;;;;;;2.20;99.90;;;;;;4885646;29;19915;-89
2024/01/22 02:42:16;;;;;;;;;;;2.40;99.90;;;;;;4885780;29;19922;-89
2024/01/22 02:44:42;;;;;;;;;;;2.60;99.90;;;;;;4885183;29;19930;-90
2024/01/22 02:47:08;;;;;;;;;;;2.70;99.90;;;;;;4885376;29;20006;-90
2024/01/22 02:49:34;;;;;;;;;;;2.80;99.90;;;;;;4885662;29;19926;-89
2024/01/22 02:52:00;;;;;;;;;;;2.80;99.90;;;;;;4901105;29;19919;-89
2024/01/22 02:54:25;;;;;;;;;;;2.90;99.90;;;;;;4885402;29;19922;-90
2024/01/22 02:56:51;;;;;;;;;;;2.90;99.90;;;;;;4885055;29;19918;-89
2024/01/22 02:59:18;;;;;;;;;;;2.90;99.90;;;;;;4885673;29;20459;-90
2024/01/22 03:01:44;;;;;;;;;;;2.90;99.90;;;;;;4884824;29;20364;-90
2024/01/22 03:04:10;;;;;;;;;;;2.90;99.90;;;;;;4883778;29;19927;-89
2024/01/22 03:06:37;;;;;;;;;;;2.90;99.90;;;;;;4869109;29;20024;-89
2024/01/22 03:09:03;;;;;;;;;;;2.90;99.90;;;;;;4884882;29;19959;-89
2024/01/22 03:11:28;;;;;;;;;;;2.90;99.90;;;;;;4885380;29;20423;-89
2024/01/22 03:13:54;;;;;;;;;;;2.90;99.90;;;;;;4884798;29;19916;-89
2024/01/22 03:16:19;;;;;;;;;;;2.90;99.90;;;;;;4901900;29;19954;-89
2024/01/22 03:18:45;;;;;;;;;;;2.80;99.90;;;;;;4884849;29;20037;-89
2024/01/22 03:21:10;;;;;;;;;;;2.90;99.90;;;;;;4884830;29;19921;-89
2024/01/22 03:23:36;;;;;;;;;;;2.90;99.90;;;;;;4885508;29;19922;-89
2024/01/22 03:26:02;;;;;;;;;;;2.90;99.90;;;;;;4884608;29;19927;-89
2024/01/22 03:28:27;;;;;;;;;;;2.80;99.90;;;;;;4885264;29;19920;-90
2024/01/22 03:30:53;;;;;;;;;;;2.80;99.90;;;;;;4899465;29;19915;-89
2024/01/22 03:33:18;;;;;;;;;;;2.80;99.90;;;;;;4899813;29;20745;-89
2024/01/22 03:35:45;;;;;;;;;;;2.80;99.90;;;;;;4898564;29;19923;-90
2024/01/22 03:38:10;;;;;;;;;;;2.70;99.90;;;;;;4885083;29;19915;-90
2024/01/22 03:40:36;;;;;;;;;;;2.70;99.90;;;;;;4884957;29;19921;-90
2024/01/22 03:43:02;;;;;;;;;;;2.70;99.90;;;;;;4884680;29;19923;-88
2024/01/22 03:45:27;;;;;;;;;;;2.70;99.90;;;;;;4883285;29;19919;-90
2024/01/22 03:47:53;;;;;;;;;;;2.80;99.90;;;;;;4884304;29;19915;-90
2024/01/22 03:50:18;;;;;;;;;;;2.80;99.90;;;;;;4884659;29;20356;-90
2024/01/22 03:52:44;;;;;;;;;;;2.80;99.90;;;;;;4883824;29;19920;-90
2024/01/22 03:55:09;;;;;;;;;;;2.80;99.90;;;;;;4884268;29;19915;-89
2024/01/22 03:57:35;;;;;;;;;;;2.90;99.90;;;;;;4884160;29;19915;-89
2024/01/22 04:00:01;;;;;;;;;;;2.80;99.90;;;;;;4884193;29;20395;-90
2024/01/22 04:02:32;;;;;;;;;;;2.80;99.90;;;;;;4883870;29;20303;-89
2024/01/22 04:04:57;;;;;;;;;;;2.80;99.90;;;;;;4883696;29;19949;-90
2024/01/22 04:07:23;;;;;;;;;;;2.80;99.90;;;;;;4884441;29;20287;-89
2024/01/22 04:09:48;;;;;;;;;;;2.80;99.90;;;;;;4884131;29;19967;-90
2024/01/22 04:12:14;;;;;;;;;;;2.80;99.90;;;;;;4884079;29;19915;-89
2024/01/22 04:14:39;;;;;;;;;;;2.90;99.90;;;;;;4899725;29;19955;-89
2024/01/22 04:17:05;;;;;;;;;;;2.90;99.90;;;;;;4883523;29;20376;-89
2024/01/22 04:19:31;;;;;;;;;;;2.80;99.90;;;;;;4899448;29;19959;-89
2024/01/22 04:21:56;;;;;;;;;;;2.90;99.90;;;;;;4883650;29;20013;-89
2024/01/22 04:24:22;;;;;;;;;;;2.80;99.90;;;;;;4883692;29;19927;-89
2024/01/22 04:26:47;;;;;;;;;;;2.80;99.90;;;;;;4883281;29;19920;-90
2024/01/22 04:29:13;;;;;;;;;;;2.80;99.90;;;;;;4882925;29;20332;-89
2024/01/22 04:31:38;;;;;;;;;;;2.80;99.90;;;;;;4883468;29;20264;-89
2024/01/22 04:34:04;;;;;;;;;;;2.80;99.90;;;;;;4883744;29;19922;-89
2024/01/22 04:36:30;;;;;;;;;;;2.90;99.90;;;;;;4884328;29;20356;-90
2024/01/22 04:38:55;;;;;;;;;;;2.90;99.90;;;;;;4881638;29;19979;-90
2024/01/22 04:41:21;;;;;;;;;;;2.90;99.90;;;;;;4884351;29;19915;-90
2024/01/22 04:43:47;;;;;;;;;;;2.90;99.90;;;;;;4883871;29;20287;-90
2024/01/22 04:46:12;;;;;;;;;;;2.90;99.90;;;;;;4884479;29;19927;-89
2024/01/22 04:48:38;;;;;;;;;;;2.80;99.90;;;;;;4884594;29;20002;-90
2024/01/22 04:51:04;;;;;;;;;;;2.80;99.90;;;;;;4888241;29;19954;-89
2024/01/22 04:53:29;;;;;;;;;;;2.80;99.90;;;;;;4892284;29;19971;-89
2024/01/22 04:55:55;;;;;;;;;;;2.70;99.90;;;;;;4903986;29;19925;-90
2024/01/22 04:58:20;;;;;;;;;;;2.70;99.90;;;;;;4910090;29;19899;-90
2024/01/22 05:00:46;;;;;;;;;;;2.80;99.90;;;;;;4909898;29;19904;-89
2024/01/22 05:03:12;;;;;;;;;;;2.80;99.90;;;;;;4910056;29;19971;-89
2024/01/22 05:05:38;;;;;;;;;;;2.80;99.90;;;;;;4901362;29;19966;-90
2024/01/22 05:08:03;;;;;;;;;;;2.90;99.90;;;;;;4891008;29;19926;-89
2024/01/22 05:10:29;;;;;;;;;;;2.90;99.90;;;;;;4890166;29;19915;-90
2024/01/22 05:12:55;;;;;;;;;;;3.00;99.90;;;;;;4890465;29;19916;-90
2024/01/22 05:15:20;;;;;;;;;;;3.00;99.90;;;;;;4906663;29;19933;-90
2024/01/22 05:17:46;;;;;;;;;;;3.00;99.90;;;;;;4891183;29;20380;-90
2024/01/22 05:20:12;;;;;;;;;;;2.90;99.90;;;;;;4890654;29;19965;-89
2024/01/22 05:22:38;;;;;;;;;;;2.90;99.90;;;;;;4891111;29;19915;-90
2024/01/22 05:25:03;;;;;;;;;;;2.80;99.90;;;;;;4891692;29;19919;-90
2024/01/22 05:27:30;;;;;;;;;;;2.80;99.90;;;;;;4890823;29;19915;-90
2024/01/22 05:29:56;;;;;;;;;;;2.80;99.90;;;;;;4875537;29;19915;-90
2024/01/22 05:32:21;;;;;;;;;;;2.80;99.90;;;;;;4891248;29;19922;-90
2024/01/22 05:34:47;;;;;;;;;;;2.80;99.90;;;;;;4892109;29;19916;-89
2024/01/22 05:37:12;;;;;;;;;;;2.80;99.90;;;;;;4891400;29;20055;-90
2024/01/22 05:39:38;;;;;;;;;;;2.70;99.90;;;;;;4874609;29;19922;-90
2024/01/22 05:42:04;;;;;;;;;;;2.70;99.90;;;;;;4890452;29;19923;-89
2024/01/22 05:44:30;;;;;;;;;;;2.60;99.90;;;;;;4891424;29;19925;-89
2024/01/22 05:46:55;;;;;;;;;;;2.60;99.90;;;;;;4891513;29;20420;-89
2024/01/22 05:49:21;;;;;;;;;;;2.50;99.90;;;;;;4890876;29;19899;-88
2024/01/22 05:51:47;;;;;;;;;;;2.50;99.90;;;;;;4891800;29;19975;-89
2024/01/22 05:54:13;;;;;;;;;;;2.40;99.90;;;;;;4891454;29;19915;-89
2024/01/22 05:56:39;;;;;;;;;;;2.40;99.90;;;;;;4890453;29;19962;-89
2024/01/22 05:59:04;;;;;;;;;;;2.40;99.90;;;;;;4890100;29;19927;-88
2024/01/22 06:01:30;;;;;;;;;;;2.50;99.90;;;;;;4890853;29;19915;-89
2024/01/22 06:03:56;;;;;;;;;;;2.50;99.90;;;;;;4886786;29;20364;-90
2024/01/22 06:06:21;;;;;;;;;;;2.50;99.90;;;;;;4888038;29;19954;-89
2024/01/22 06:08:48;;;;;;;;;;;2.50;99.90;;;;;;4886664;29;20344;-89
2024/01/22 06:11:15;;;;;;;;;;;2.50;99.90;;;;;;4886758;29;19922;-88
2024/01/22 06:13:44;;;;;;;;;;;2.50;99.90;;;;;;4886702;29;20038;-89
2024/01/22 06:16:10;;;;;;;;;;;2.70;99.90;;;;;;4886274;29;20345;-89
2024/01/22 06:18:36;;;;;;;;;;;2.90;99.90;;;;;;4870696;29;20264;-88
2024/01/22 06:21:02;;;;;;;;;;;3.00;99.90;;;;;;4874438;29;19940;-90
2024/01/22 06:23:28;;;;;;;;;;;3.10;99.90;;;;;;4891377;29;19926;-89
2024/01/22 06:25:53;;;;;;;;;;;3.20;99.90;;;;;;4886187;29;20280;-88
2024/01/22 06:28:19;;;;;;;;;;;3.10;99.90;;;;;;4886237;29;19924;-89
2024/01/22 06:30:44;;;;;;;;;;;3.30;99.90;;;;;;4886429;29;19926;-89
2024/01/22 06:33:10;;;;;;;;;;;3.40;99.90;;;;;;4885903;29;19966;-89
2024/01/22 06:35:36;;;;;;;;;;;3.50;99.90;;;;;;4885560;29;20371;-89
2024/01/22 06:38:02;;;;;;;;;;;3.70;99.90;;;;;;4885846;29;19921;-90
2024/01/22 06:40:31;;;;;;;;;;;3.80;99.90;;;;;;4884583;29;19911;-89
2024/01/22 06:42:57;;;;;;;;;;;3.90;99.90;;;;;;4884820;29;19919;-89
2024/01/22 06:45:22;;;;;;;;;;;4.00;99.90;;;;;;4884557;29;19979;-89
2024/01/22 06:47:48;;;;;;;;;;;4.00;99.90;;;;;;4885569;29;19990;-89
2024/01/22 06:50:14;;;;;;;;;;;4.00;99.90;;;;;;4902176;29;19981;-89
2024/01/22 06:52:39;;;;;;;;;;;4.00;99.90;;;;;;4901016;29;20018;-88
2024/01/22 06:55:05;;;;;;;;;;;4.00;99.90;;;;;;4885623;29;19969;-89
2024/01/22 06:57:31;;;;;;;;;;;4.10;99.90;;;;;;4886631;29;19912;-89
2024/01/22 06:59:56;;;;;;;;;;;4.10;99.90;;;;;;4885987;29;19919;-89
2024/01/22 07:02:26;;;;;;;;;;;4.10;99.90;;;;;;4886278;29;19930;-89
2024/01/22 07:04:58;;;;;;;;;;;4.10;99.90;;;;;;4886307;29;19919;-89
2024/01/22 07:07:23;;;;;;;;;;;4.10;99.90;;;;;;4886951;29;19916;-90
2024/01/22 07:09:49;;;;;;;;;;;4.20;99.90;;;;;;4886418;29;19918;-89
2024/01/22 07:12:15;;;;;;;;;;;4.20;99.90;;;;;;4884106;29;20431;-87
2024/01/22 07:14:41;;;;;;;;;;;4.30;99.90;;;;;;4883041;29;19926;-87
2024/01/22 07:17:06;;;;;;;;;;;4.30;99.90;;;;;;4882982;29;20269;-88
2024/01/22 07:19:32;;;;;;;;;;;4.30;99.90;;;;;;4882719;29;20689;-87
2024/01/22 07:21:58;;;;;;;;;;;4.30;99.90;;;;;;4867788;29;19916;-87
2024/01/22 07:24:23;;;;;;;;;;;4.40;99.90;;;;;;4882777;29;19924;-87
2024/01/22 07:26:49;;;;;;;;;;;4.40;99.90;;;;;;4882488;29;20006;-88
2024/01/22 07:29:14;;;;;;;;;;;4.40;99.90;;;;;;4898369;29;19951;-88
2024/01/22 07:31:40;;;;;;;;;;;4.40;99.90;;;;;;4883412;29;19987;-88
2024/01/22 07:34:06;;;;;;;;;;;4.40;99.90;;;;;;4883412;29;19922;-88
2024/01/22 07:36:31;;;;;;;;;;;4.30;99.90;;;;;;4883272;29;20397;-88
2024/01/22 07:38:58;;;;;;;;;;;4.30;99.90;;;;;;4883003;29;20372;-87
2024/01/22 07:41:23;;;;;;;;;;;4.30;99.90;;;;;;4882933;29;19924;-87
2024/01/22 07:43:52;;;;;;;;;;;4.20;99.90;;;;;;4883199;29;19919;-87
2024/01/22 07:46:17;;;;;;;;;;;4.20;99.90;;;;;;4898787;29;20015;-87
2024/01/22 07:48:43;;;;;;;;;;;4.10;99.90;;;;;;4882388;29;20010;-87
2024/01/22 07:51:09;;;;;;;;;;;4.10;99.90;;;;;;4883014;29;19926;-87
2024/01/22 07:53:34;;;;;;;;;;;4.10;99.90;;;;;;4882819;29;19921;-87
2024/01/22 07:56:00;;;;;;;;;;;4.10;99.90;;;;;;4882874;29;20283;-87
2024/01/22 07:58:26;;;;;;;;;;;4.10;99.90;;;;;;4882848;29;19958;-86
2024/01/22 08:00:51;;;;;;;;;;;4.10;99.90;;;;;;4881791;29;20721;-87
2024/01/22 08:03:17;;;;;;;;;;;4.10;99.90;;;;;;4882431;29;19916;-86
2024/01/22 08:05:42;;;;;;;;;;;4.10;99.90;;;;;;4882094;29;19919;-86
2024/01/22 08:08:11;;;;;;;;;;;4.10;99.90;;;;;;4882652;29;19954;-86
2024/01/22 08:10:37;;;;;;;;;;;4.10;99.90;;;;;;4883154;29;19919;-86
2024/01/22 08:13:03;;;;;;;;;;;4.10;99.90;;;;;;4882286;29;19922;-86
2024/01/22 08:15:29;;;;;;;;;;;4.20;99.90;;;;;;4881791;29;19927;-87
2024/01/22 08:17:55;;;;;;;;;;;4.30;99.90;;;;;;4897583;29;20630;-86
2024/01/22 08:20:21;;;;;;;;;;;4.30;99.90;;;;;;4881999;29;19923;-86
2024/01/22 08:22:46;;;;;;;;;;;4.40;99.90;;;;;;4882263;29;20597;-87
2024/01/22 08:25:17;;;;;;;;;;;4.40;99.90;;;;;;4881675;29;20030;-87
2024/01/22 08:27:44;;;;;;;;;;;4.40;99.90;;;;;;4882258;29;20408;-87
2024/01/22 08:30:11;;;;;;;;;;;4.50;99.90;;;;;;4882272;29;20387;-86
2024/01/22 08:32:36;;;;;;;;;;;4.40;99.90;;;;;;4882347;29;20013;-86
2024/01/22 08:35:02;;;;;;;;;;;4.30;99.90;;;;;;4897856;29;19930;-86
2024/01/22 08:37:28;;;;;;;;;;;4.40;99.90;;;;;;4881836;29;19976;-86
2024/01/22 08:39:54;;;;;;;;;;;4.40;99.90;;;;;;4897489;29;19922;-86
2024/01/22 08:42:19;;;;;;;;;;;4.40;99.90;;;;;;4882560;29;19972;-86
2024/01/22 08:44:45;;;;;;;;;;;4.50;99.90;;;;;;4882134;29;19928;-86
2024/01/22 08:47:11;;;;;;;;;;;4.60;99.90;;;;;;4882025;29;19971;-86
2024/01/22 08:49:36;;;;;;;;;;;4.50;99.90;;;;;;4882184;29;20364;-85
2024/01/22 08:52:03;;;;;;;;;;;4.50;99.90;;;;;;4881722;29;20023;-86
2024/01/22 08:54:28;;;;;;;;;;;4.30;99.90;;;;;;4897518;29;19916;-85
2024/01/22 08:56:55;;;;;;;;;;;4.20;99.90;;;;;;4880643;29;20537;-86
2024/01/22 08:59:21;;;;;;;;;;;4.10;99.90;;;;;;4881101;29;19922;-86
2024/01/22 09:01:46;;;;;;;;;;;4.10;99.90;;;;;;4881508;29;19915;-87
2024/01/22 09:04:12;;;;;;;;;;;4.10;99.90;;;;;;4882167;29;19930;-89
2024/01/22 09:06:38;;;;;;;;;;;4.10;99.90;;;;;;4866663;29;19915;-87
2024/01/22 09:09:05;;;;;;;;;;;4.00;99.90;;;;;;4882610;29;19998;-88
2024/01/22 09:11:31;;;;;;;;;;;4.00;99.90;;;;;;4898228;29;19923;-88
2024/01/22 09:13:57;;;;;;;;;;;4.00;99.90;;;;;;4882066;29;20722;-87
2024/01/22 09:16:22;;;;;;;;;;;4.10;99.90;;;;;;4882209;29;20061;-86
2024/01/22 09:18:48;;;;;;;;;;;4.00;99.90;;;;;;4866495;29;19923;-86
2024/01/22 09:21:14;;;;;;;;;;;4.00;99.90;;;;;;4897847;29;19915;-88
2024/01/22 09:23:39;;;;;;;;;;;3.90;99.90;;;;;;4881929;29;19920;-87
2024/01/22 09:26:05;;;;;;;;;;;4.00;99.90;;;;;;4881631;29;19930;-87
2024/01/22 09:28:31;;;;;;;;;;;4.00;99.90;;;;;;4897622;29;20399;-86
2024/01/22 09:31:00;;;;;;;;;;;4.10;99.90;;;;;;4881241;29;19919;-87
2024/01/22 09:33:26;;;;;;;;;;;4.10;99.90;;;;;;4896861;29;19916;-87
2024/01/22 09:35:55;;;;;;;;;;;4.20;99.90;;;;;;4880339;29;19934;-87
2024/01/22 09:38:21;;;;;;;;;;;4.20;99.90;;;;;;4885119;29;19916;-85
2024/01/22 09:40:48;;;;;;;;;;;4.30;99.90;;;;;;4885266;29;19917;-86
2024/01/22 09:43:14;;;;;;;;;;;4.30;99.90;;;;;;4869175;29;19967;-85
2024/01/22 09:45:39;;;;;;;;;;;4.30;99.90;;;;;;4868546;29;20380;-86
2024/01/22 09:48:05;;;;;;;;;;;4.40;99.90;;;;;;4884109;29;20024;-86
2024/01/22 09:50:31;;;;;;;;;;;4.50;99.90;;;;;;4900269;29;20014;-86
2024/01/22 09:52:59;;;;;;;;;;;4.50;99.90;;;;;;4900391;29;20439;-86
2024/01/22 09:55:25;;;;;;;;;;;4.50;99.90;;;;;;4884813;29;19923;-86
2024/01/22 09:57:58;;;;;;;;;;;4.60;99.90;;;;;;4900501;29;20356;-86
2024/01/22 10:00:26;;;;;;;;;;;4.60;99.90;;;;;;4884559;29;19926;-86
2024/01/22 10:02:52;;;;;;;;;;;4.60;99.90;;;;;;4885537;29;20368;-86
2024/01/22 10:05:18;;;;;;;;;;;4.70;99.90;;;;;;4884701;29;19931;-86
2024/01/22 10:07:44;;;;;;;;;;;4.80;99.90;;;;;;4884979;29;19922;-86
2024/01/22 10:10:10;;;;;;;;;;;4.90;99.90;;;;;;4884185;29;20017;-86
2024/01/22 10:12:55;;;;;;;;;;;4.90;99.90;;;;;;4884175;29;20537;-86
2024/01/22 10:15:20;;;;;;;;;;;4.90;99.90;;;;;;4900058;29;19952;-86
2024/01/22 10:17:46;;;;;;;;;;;5.00;99.90;;;;;;4884799;29;19912;-87
2024/01/22 10:20:12;;;;;;;;;;;5.00;99.90;;;;;;4886062;29;19923;-87
2024/01/22 10:22:37;;;;;;;;;;;5.00;99.90;;;;;;4885925;29;20360;-86
2024/01/22 10:25:03;;;;;;;;;;;5.00;99.90;;;;;;4899602;29;19927;-87
2024/01/22 10:27:29;;;;;;;;;;;5.10;99.90;;;;;;4883829;29;20676;-87
2024/01/22 10:30:11;;;;;;;;;;;5.10;99.90;;;;;;4883872;29;19916;-86
2024/01/22 10:32:37;;;;;;;;;;;5.10;99.90;;;;;;4883961;29;20042;-87
2024/01/22 10:35:03;;;;;;;;;;;5.20;99.90;;;;;;4868373;29;19967;-86
2024/01/22 10:37:29;;;;;;;;;;;5.20;99.90;;;;;;4884824;29;19927;-87
2024/01/22 10:40:02;;;;;;;;;;;5.20;99.90;;;;;;4884978;29;20268;-87
2024/01/22 10:42:28;;;;;;;;;;;5.20;99.90;;;;;;4884252;29;19955;-86
2024/01/22 10:44:55;;;;;;;;;;;5.20;99.90;;;;;;4884352;29;19966;-86
2024/01/22 10:47:21;;;;;;;;;;;5.20;99.90;;;;;;4898601;29;19926;-88
2024/01/22 10:49:46;;;;;;;;;;;5.30;99.90;;;;;;4883541;29;19920;-86
2024/01/22 10:52:13;;;;;;;;;;;5.30;99.90;;;;;;4884310;29;19919;-88
2024/01/22 10:54:39;;;;;;;;;;;5.40;99.90;;;;;;4884344;29;19928;-87
2024/01/22 10:57:08;;;;;;;;;;;5.30;99.90;;;;;;4884416;29;19919;-86
2024/01/22 10:59:38;;;;;;;;;;;5.40;99.90;;;;;;4883972;29;20000;-87
2024/01/22 11:02:05;;;;;;;;;;;5.40;99.90;;;;;;4883578;29;19919;-87
2024/01/22 11:04:37;;;;;;;;;;;5.40;99.90;;;;;;4884207;29;19924;-87
2024/01/22 11:07:05;;;;;;;;;;;5.40;99.90;;;;;;4883986;29;19926;-87
2024/01/22 11:09:32;;;;;;;;;;;5.40;99.90;;;;;;4883526;29;19926;-86
2024/01/22 11:12:04;;;;;;;;;;;5.40;99.90;;;;;;4883343;29;19919;-87
2024/01/22 11:14:30;;;;;;;;;;;5.40;99.90;;;;;;4883299;29;19915;-86
2024/01/22 11:16:56;;;;;;;;;;;5.40;99.90;;;;;;4883616;29;20636;-87
2024/01/22 11:19:22;;;;;;;;;;;5.50;99.90;;;;;;4899859;29;19933;-87
2024/01/22 11:21:49;;;;;;;;;;;5.50;99.90;;;;;;4882979;29;20368;-87
2024/01/22 11:24:16;;;;;;;;;;;5.50;99.90;;;;;;4883477;29;20276;-86
2024/01/22 11:26:51;;;;;;;;;;;5.60;99.90;;;;;;4883170;29;19915;-87
2024/01/22 11:29:27;;;;;;;;;;;5.60;99.90;;;;;;4898441;29;19919;-87
2024/01/22 11:31:53;;;;;;;;;;;5.60;99.90;;;;;;4882932;29;19935;-87
2024/01/22 11:34:37;;;;;;;;;;;5.60;99.90;;;;;;4883112;29;19920;-87
2024/01/22 11:37:03;;;;;;;;;;;5.70;99.90;;;;;;4898392;29;19987;-87
2024/01/22 11:39:44;;;;;;;;;;;5.80;99.90;;;;;;4882583;29;20006;-87
2024/01/22 11:42:25;;;;;;;;;;;5.80;99.90;;;;;;4898352;29;19923;-87
2024/01/22 11:44:51;;;;;;;;;;;5.80;99.90;;;;;;4882342;29;19924;-87
2024/01/22 11:47:18;;;;;;;;;;;5.80;99.90;;;;;;4882891;29;20600;-88
2024/01/22 11:49:44;;;;;;;;;;;5.80;99.90;;;;;;4882523;29;19920;-86
2024/01/22 11:52:10;;;;;;;;;;;5.90;99.90;;;;;;4882830;29;19926;-87
2024/01/22 11:54:35;;;;;;;;;;;5.90;99.90;;;;;;4897691;29;19922;-87
2024/01/22 11:57:02;;;;;;;;;;;5.90;99.90;;;;;;4897606;29;19915;-87
2024/01/22 11:59:28;;;;;;;;;;;5.90;99.90;;;;;;4881454;29;19920;-87
2024/01/22 12:02:09;;;;;;;;;;;5.90;99.90;;;;;;4881683;29;19940;-88
2024/01/22 12:04:34;;;;;;;;;;;6.00;99.90;;;;;;4882431;29;20502;-87
2024/01/22 12:07:00;;;;;;;;;;;6.00;99.90;;;;;;4898525;29;19927;-87
2024/01/22 12:09:32;;;;;;;;;;;6.00;99.90;;;;;;4882051;29;19946;-86
2024/01/22 12:12:02;;;;;;;;;;;6.10;99.90;;;;;;4882187;29;19942;-87
2024/01/22 12:14:28;;;;;;;;;;;6.10;99.90;;;;;;4898273;29;19919;-86
2024/01/22 12:17:00;;;;;;;;;;;6.10;99.90;;;;;;4883436;29;19926;-88
2024/01/22 12:19:26;;;;;;;;;;;6.20;99.90;;;;;;4867898;29;19919;-88
2024/01/22 12:21:52;;;;;;;;;;;6.20;99.90;;;;;;4883250;29;19974;-87
2024/01/22 12:24:19;;;;;;;;;;;6.20;99.90;;;;;;4882428;29;19927;-87
2024/01/22 12:26:44;;;;;;;;;;;6.30;99.90;;;;;;4882184;29;20407;-88
2024/01/22 12:29:23;;;;;;;;;;;6.30;99.90;;;;;;4882498;29;19958;-88
2024/01/22 12:31:49;;;;;;;;;;;6.30;99.90;;;;;;4866703;29;19919;-86
2024/01/22 12:34:16;;;;;;;;;;;6.30;99.90;;;;;;4897973;29;20272;-87
2024/01/22 12:36:42;;;;;;;;;;;6.30;99.90;;;;;;4867587;29;19920;-88
2024/01/22 12:39:07;;;;;;;;;;;6.30;99.90;;;;;;4882263;29;19927;-88
2024/01/22 12:41:33;;;;;;;;;;;6.40;99.90;;;;;;4881793;29;20017;-87
2024/01/22 12:43:59;;;;;;;;;;;6.40;99.90;;;;;;4898053;29;19974;-87
2024/01/22 12:46:24;;;;;;;;;;;6.40;99.90;;;;;;4897531;29;20018;-85
2024/01/22 12:48:55;;;;;;;;;;;6.40;99.90;;;;;;4908548;29;19919;-87
2024/01/22 12:51:25;;;;;;;;;;;6.40;99.90;;;;;;4883787;29;20193;-86
2024/01/22 12:53:51;;;;;;;;;;;6.50;99.90;;;;;;4883117;29;19915;-87
2024/01/22 12:56:17;;;;;;;;;;;6.60;99.90;;;;;;4882506;29;20459;-87
2024/01/22 12:58:42;;;;;;;;;;;6.60;99.90;;;;;;4883239;29;20711;-88
2024/01/22 13:01:10;;;;;;;;;;;6.60;99.90;;;;;;4882306;29;19916;-87
2024/01/22 13:03:36;;;;;;;;;;;6.60;99.90;;;;;;4882277;29;19922;-87
2024/01/22 13:06:02;;;;;;;;;;;6.70;99.90;;;;;;4866207;29;20014;-87
2024/01/22 13:08:27;;;;;;;;;;;6.70;99.90;;;;;;4881007;29;19923;-88
2024/01/22 13:10:55;;;;;;;;;;;6.60;99.90;;;;;;4880772;29;19919;-86
2024/01/22 13:13:22;;;;;;;;;;;6.60;99.90;;;;;;4899382;29;19919;-87
2024/01/22 13:15:48;;;;;;;;;;;6.60;99.90;;;;;;4884538;29;19930;-86
2024/01/22 13:18:20;;;;;;;;;;;6.60;99.90;;;;;;4885579;29;19912;-85
2024/01/22 13:20:51;;;;;;;;;;;6.60;99.90;;;;;;4885943;29;19920;-86
2024/01/22 13:23:23;;;;;;;;;;;6.60;99.90;;;;;;4902721;29;19920;-85
2024/01/22 13:25:51;;;;;;;;;;;6.60;99.90;;;;;;4901947;29;19934;-85
2024/01/22 13:28:17;;;;;;;;;;;6.70;99.90;;;;;;4886387;29;19915;-86
2024/01/22 13:30:46;;;;;;;;;;;6.70;99.90;;;;;;4885359;29;19919;-85
2024/01/22 13:33:12;;;;;;;;;;;6.80;99.90;;;;;;4885997;29;19919;-86
2024/01/22 13:35:38;;;;;;;;;;;6.70;99.90;;;;;;4885972;29;19947;-86
2024/01/22 13:38:04;;;;;;;;;;;6.70;99.90;;;;;;4885101;29;19958;-87
2024/01/22 13:40:30;;;;;;;;;;;6.70;99.90;;;;;;4885499;29;20368;-86
2024/01/22 13:42:55;;;;;;;;;;;6.70;99.90;;;;;;4885684;29;19947;-87
2024/01/22 13:45:24;;;;;;;;;;;6.70;99.90;;;;;;4886136;29;19963;-88
2024/01/22 13:47:50;;;;;;;;;;;6.70;99.90;;;;;;4885475;29;20010;-86
2024/01/22 13:50:15;;;;;;;;;;;6.80;99.90;;;;;;4885232;29;20347;-86
2024/01/22 13:52:41;;;;;;;;;;;6.80;99.90;;;;;;4883980;29;19919;-86
2024/01/22 13:55:07;;;;;;;;;;;6.80;99.90;;;;;;4885059;29;20308;-85
2024/01/22 13:57:32;;;;;;;;;;;6.80;99.90;;;;;;4886658;29;19930;-86
2024/01/22 13:59:58;;;;;;;;;;;6.80;99.90;;;;;;4884869;29;19919;-86
2024/01/22 14:02:23;;;;;;;;;;;6.90;99.90;;;;;;4884239;29;19916;-86
2024/01/22 14:04:49;;;;;;;;;;;6.90;99.90;;;;;;4884591;29;19994;-87
2024/01/22 14:07:14;;;;;;;;;;;6.90;99.90;;;;;;4884424;29;19920;-86
2024/01/22 14:09:40;;;;;;;;;;;6.80;99.90;;;;;;4884871;29;20010;-86
2024/01/22 14:12:06;;;;;;;;;;;6.90;99.90;;;;;;4884664;29;19920;-86
2024/01/22 14:14:32;;;;;;;;;;;6.90;99.90;;;;;;4884725;29;20387;-87
2024/01/22 14:16:57;;;;;;;;;;;6.90;99.90;;;;;;4884054;29;19916;-86
2024/01/22 14:19:23;;;;;;;;;;;6.90;99.90;;;;;;4899219;29;19942;-86
2024/01/22 14:21:49;;;;;;;;;;;7.00;99.90;;;;;;4899240;29;19983;-87
2024/01/22 14:24:14;;;;;;;;;;;7.00;99.90;;;;;;4883074;29;19916;-87
2024/01/22 14:26:40;;;;;;;;;;;7.00;99.90;;;;;;4883260;29;19999;-87